INFORMACIÓN METAR y TAF
METAR FOR LFBP
ADDS - METARS form results

(0755 UTC 15 April 2021)
Data provider http://aviationweather.gov/metar/data/
 
METAR text: LFBP 150730Z AUTO VRB02KT CAVOK 06/00 Q1021 NOSIG
Conditions at: LFBP (PONT-LONG-UZEIN/, FR) observed 0730 UTC 15 April 2021
Temperature: 6.0°C (43°F)
Dewpoint: 0.0°C (32°F) [RH = 65%]
Pressure (altimeter): 30.15 inches Hg (1021.0 mb)
Winds: variable direction winds at 2 MPH (2 knots; 1.0 m/s)
Visibility: 6 or more miles (10+ km)
Ceiling: ceiling and visibility are OK
Clouds: unknown
Weather: no significant weather observed at this time

METAR text: LFBP 150700Z AUTO 00000KT CAVOK 04/01 Q1021 NOSIG
Conditions at: LFBP (PONT-LONG-UZEIN/, FR) observed 0700 UTC 15 April 2021
Temperature: 4.0°C (39°F)
Dewpoint: 1.0°C (34°F) [RH = 81%]
Pressure (altimeter): 30.15 inches Hg (1021.0 mb)
Winds: calm
Visibility: 6 or more miles (10+ km)
Ceiling: ceiling and visibility are OK
Clouds: unknown
Weather: no significant weather observed at this time

Forecast for: LFBP (PONT-LONG-UZEIN/, FR)
Text: TAF LFBP 150500Z 1506/1606 VRB04KT CAVOK
Forecast period: 0600 UTC 15 April 2021 to 0600 UTC 16 April 2021
Forecast type: FROM: standard forecast or significant change
Winds: variable direction winds at 5 MPH (4 knots; 2.1 m/s)
Visibility: 6 or more miles (10+ km)
Ceiling: unknown
Clouds: missing
Weather: NSW  (no significant weather)

 MAPA DE AEROPUERTO

 INFORMACIÓN DE PISTA
Pista 13 Longitud 8202 ft Ancho 148 ft
Elevación 581 ft Umbral desplazado 0 ft Rumbo de pista 125
Pista 31 Longitud 8202 ft Ancho 148 ft
Elevación 616 ft Umbral desplazado 0 ft Rumbo de pista 305

 FRECUANCIAS DEL AEROPUERTO
Tipo APP Nombre PYRENEES A Frecuencia 121.175 MHZ
Tipo ATIS Nombre ATIS Frecuencia 128.475 MHZ
Tipo GND Nombre GND Frecuencia 121.75 MHZ
Tipo TWR Nombre TWR Frecuencia 124.15 MHZ

 RADIO AYUDAS DEL AEROPUERTO



Powered by Virtual Airlines Manager [v2.6.2]